createdAt,value
2023-03-24T00:01:07.573Z,8.35
2023-03-24T00:03:38.114Z,8.45
2023-03-24T00:06:09.372Z,6.95
2023-03-24T00:08:38.772Z,8.85
2023-03-24T00:11:11.700Z,9.23
2023-03-24T00:13:41.367Z,8.50
2023-03-24T00:16:13.182Z,8.85
2023-03-24T00:18:43.118Z,8.75
2023-03-24T00:21:13.629Z,8.95
2023-03-24T00:23:42.904Z,8.48
2023-03-24T00:26:15.606Z,9.85
2023-03-24T00:28:46.189Z,9.52
2023-03-24T00:31:16.410Z,10.13
2023-03-24T00:33:51.013Z,8.82
2023-03-24T00:36:23.179Z,10.05
2023-03-24T00:38:52.312Z,9.90
2023-03-24T00:41:21.476Z,11.07
2023-03-24T00:43:51.122Z,12.73
2023-03-24T00:46:28.619Z,12.18
2023-03-24T00:49:03.688Z,12.48
2023-03-24T00:51:34.462Z,11.73
2023-03-24T00:54:03.921Z,12.38
2023-03-24T00:56:37.984Z,13.25
2023-03-24T00:59:10.001Z,13.70
2023-03-24T01:01:41.273Z,14.07
2023-03-24T01:04:11.513Z,15.27
2023-03-24T01:06:41.253Z,15.63
2023-03-24T01:09:10.706Z,14.32
2023-03-24T01:11:42.050Z,15.40
2023-03-24T01:14:12.013Z,13.32
2023-03-24T01:16:41.023Z,16.00
2023-03-24T01:19:11.298Z,16.50
2023-03-24T01:21:42.356Z,17.27
2023-03-24T01:24:13.644Z,17.20
2023-03-24T01:26:42.276Z,17.17
2023-03-24T01:29:11.470Z,16.27
2023-03-24T01:31:40.089Z,13.82
2023-03-24T01:34:09.957Z,15.15
2023-03-24T01:36:38.394Z,11.25
2023-03-24T01:39:06.836Z,11.68
2023-03-24T01:41:40.953Z,12.07
2023-03-24T01:44:29.944Z,10.95
2023-03-24T01:46:59.308Z,10.85
2023-03-24T01:49:34.468Z,11.13
2023-03-24T01:52:08.605Z,11.93
2023-03-24T01:54:43.030Z,11.82
2023-03-24T01:57:16.220Z,10.38
2023-03-24T01:59:49.696Z,10.82
2023-03-24T02:02:22.253Z,10.50
2023-03-24T02:04:56.748Z,9.48
2023-03-24T02:07:34.776Z,10.38
2023-03-24T02:10:07.188Z,11.10
2023-03-24T02:12:36.816Z,10.95
2023-03-24T02:15:07.658Z,12.68
2023-03-24T02:18:02.218Z,11.38
2023-03-24T02:21:36.725Z,10.63
2023-03-24T02:25:04.938Z,11.00
2023-03-24T02:28:06.705Z,9.82
2023-03-24T02:31:04.121Z,9.57
2023-03-24T02:34:22.021Z,11.25
2023-03-24T02:37:33.922Z,11.68
2023-03-24T02:40:19.744Z,8.50
2023-03-24T02:43:06.126Z,10.02
2023-03-24T02:45:40.029Z,11.98
2023-03-24T02:48:24.533Z,12.20
2023-03-24T02:51:06.086Z,15.07
2023-03-24T02:53:46.741Z,14.73
2023-03-24T02:56:25.126Z,15.57
2023-03-24T02:58:58.285Z,16.63
2023-03-24T03:01:32.654Z,15.55
2023-03-24T03:04:08.584Z,15.55
2023-03-24T03:06:40.742Z,15.13
2023-03-24T03:09:13.390Z,15.82
2023-03-24T03:11:48.769Z,15.65
2023-03-24T03:14:23.572Z,16.55
2023-03-24T03:16:59.996Z,17.00
2023-03-24T03:19:34.632Z,17.80
2023-03-24T03:22:06.225Z,15.85
2023-03-24T03:24:40.854Z,16.85
2023-03-24T03:27:15.737Z,16.83
2023-03-24T03:29:50.244Z,19.92
2023-03-24T03:32:28.441Z,18.73
2023-03-24T03:35:03.363Z,17.23
2023-03-24T03:37:44.860Z,19.90
2023-03-24T03:40:22.028Z,17.90
2023-03-24T03:42:52.485Z,17.85
2023-03-24T03:45:20.968Z,17.73
2023-03-24T03:47:50.447Z,19.48
2023-03-24T03:50:19.310Z,18.48
2023-03-24T03:52:47.824Z,16.73
2023-03-24T03:55:17.055Z,19.17
2023-03-24T03:57:45.912Z,17.15
2023-03-24T04:00:20.029Z,15.07
2023-03-24T04:03:17.650Z,17.48
2023-03-24T04:05:54.051Z,16.48
2023-03-24T04:08:29.777Z,19.10
2023-03-24T04:11:33.635Z,16.30
2023-03-24T04:14:23.763Z,17.30
2023-03-24T04:17:08.926Z,15.70
2023-03-24T04:19:50.953Z,16.67
2023-03-24T04:22:33.452Z,17.00
2023-03-24T04:25:14.377Z,17.08
2023-03-24T04:27:48.824Z,16.50
2023-03-24T04:30:24.671Z,17.30
2023-03-24T04:33:00.343Z,18.38
2023-03-24T04:35:35.530Z,16.98
2023-03-24T04:38:08.794Z,17.73
2023-03-24T04:40:42.208Z,16.00
2023-03-24T04:43:17.574Z,17.60
2023-03-24T04:45:49.815Z,16.95
2023-03-24T04:48:21.443Z,16.83
2023-03-24T04:50:57.253Z,16.92
2023-03-24T04:53:25.662Z,15.23
2023-03-24T04:56:28.427Z,16.73
2023-03-24T04:58:58.757Z,14.95
2023-03-24T05:01:30.306Z,14.93
2023-03-24T05:04:01.191Z,17.33
2023-03-24T05:06:29.671Z,17.10
2023-03-24T05:08:59.185Z,17.05
2023-03-24T05:11:28.312Z,15.40
2023-03-24T05:13:56.924Z,16.20
2023-03-24T05:16:25.394Z,14.45
2023-03-24T05:18:53.858Z,15.05
2023-03-24T05:21:23.694Z,15.68
2023-03-24T05:23:52.126Z,16.35
2023-03-24T05:26:20.559Z,14.50
2023-03-24T05:28:49.024Z,15.07
2023-03-24T05:31:17.582Z,13.10
2023-03-24T05:33:46.238Z,12.90
2023-03-24T05:36:15.041Z,11.80
2023-03-24T05:38:45.054Z,10.98
2023-03-24T05:41:13.472Z,9.52
2023-03-24T05:43:41.903Z,8.80
2023-03-24T05:46:10.479Z,8.55
2023-03-24T05:48:38.919Z,8.27
2023-03-24T05:51:07.999Z,8.32
2023-03-24T05:53:36.737Z,8.57
2023-03-24T05:56:12.056Z,7.97
2023-03-24T05:58:40.528Z,9.30
2023-03-24T06:01:10.764Z,7.10
2023-03-24T06:03:40.589Z,8.80
2023-03-24T06:06:14.973Z,8.05
2023-03-24T06:08:45.168Z,8.63
2023-03-24T06:11:15.576Z,9.48
2023-03-24T06:13:44.007Z,9.95
2023-03-24T06:16:12.996Z,9.15
2023-03-24T06:18:42.797Z,9.80
2023-03-24T06:21:11.373Z,11.60
2023-03-24T06:23:39.841Z,10.75
2023-03-24T06:26:12.594Z,11.85
2023-03-24T06:28:43.314Z,12.00
2023-03-24T06:31:15.258Z,11.50
2023-03-24T06:33:43.873Z,10.57
2023-03-24T06:36:14.081Z,11.68
2023-03-24T06:38:44.008Z,12.88
2023-03-24T06:41:12.713Z,13.82
2023-03-24T06:43:42.589Z,13.18
2023-03-24T06:46:11.319Z,12.93
2023-03-24T06:48:39.869Z,12.00
2023-03-24T06:51:09.267Z,11.23
2023-03-24T06:53:37.891Z,11.25
2023-03-24T06:56:07.596Z,10.75
2023-03-24T06:58:36.118Z,11.75
2023-03-24T07:03:35.713Z,10.27
2023-03-24T07:06:05.129Z,10.43
2023-03-24T07:08:38.031Z,10.35
2023-03-24T07:11:08.941Z,11.30
2023-03-24T07:13:37.623Z,11.18
2023-03-24T07:16:08.625Z,13.20
2023-03-24T07:18:37.135Z,10.85
2023-03-24T07:21:06.076Z,10.10
2023-03-24T07:23:34.778Z,13.80
2023-03-24T07:26:03.234Z,10.48
2023-03-24T07:28:31.665Z,12.13
2023-03-24T07:31:04.061Z,13.18
2023-03-24T07:33:34.703Z,12.50
2023-03-24T07:36:03.231Z,10.60
2023-03-24T07:38:32.407Z,12.00
2023-03-24T07:41:00.893Z,13.75
2023-03-24T07:43:29.325Z,11.85
2023-03-24T07:45:57.881Z,11.43
2023-03-24T07:48:26.372Z,14.57
2023-03-24T07:50:56.447Z,12.70
2023-03-24T07:53:24.914Z,11.40
2023-03-24T07:55:53.345Z,16.45
2023-03-24T07:58:21.805Z,13.85
2023-03-24T08:00:50.597Z,12.07
2023-03-24T08:03:19.435Z,14.40
2023-03-24T08:05:48.707Z,13.05
2023-03-24T08:08:18.603Z,12.70
2023-03-24T08:10:47.421Z,10.32
2023-03-24T08:13:16.029Z,11.32
2023-03-24T08:15:45.063Z,10.82
2023-03-24T08:18:13.607Z,10.23
2023-03-24T08:20:42.079Z,10.23
2023-03-24T08:23:11.204Z,10.05
2023-03-24T08:25:41.430Z,10.05
2023-03-24T08:28:10.234Z,9.40
2023-03-24T08:30:38.756Z,10.13
2023-03-24T08:33:07.321Z,17.40
2023-03-24T08:35:38.897Z,10.18
2023-03-24T08:38:08.955Z,13.88
2023-03-24T08:40:38.926Z,10.40
2023-03-24T08:43:14.027Z,10.90
2023-03-24T08:45:42.941Z,11.40
2023-03-24T08:48:11.581Z,10.25
2023-03-24T08:50:42.832Z,10.35
2023-03-24T08:53:12.527Z,12.05
2023-03-24T08:55:43.207Z,12.38
2023-03-24T08:58:16.010Z,12.63
2023-03-24T09:00:46.503Z,12.10
2023-03-24T09:03:18.544Z,11.82
2023-03-24T09:05:48.347Z,10.23
2023-03-24T09:08:19.337Z,11.80
2023-03-24T09:10:48.309Z,11.88
2023-03-24T09:13:20.390Z,12.20
2023-03-24T09:15:50.214Z,14.10
2023-03-24T09:18:21.038Z,13.48
2023-03-24T09:20:49.898Z,12.48
2023-03-24T09:23:19.186Z,12.43
2023-03-24T09:25:50.321Z,13.40
2023-03-24T09:28:20.471Z,13.27
2023-03-24T09:30:49.630Z,14.07
2023-03-24T09:33:18.931Z,12.05
2023-03-24T09:35:47.371Z,15.35
2023-03-24T09:38:15.946Z,14.82
2023-03-24T09:40:44.460Z,12.73
2023-03-24T09:43:26.225Z,12.70
2023-03-24T09:45:58.301Z,13.30
2023-03-24T09:48:37.628Z,13.43
2023-03-24T09:51:10.163Z,13.52
2023-03-24T09:53:47.905Z,12.68
2023-03-24T09:56:20.634Z,12.88
2023-03-24T09:59:02.012Z,12.52
2023-03-24T10:01:30.639Z,13.57
2023-03-24T10:04:01.318Z,13.38
2023-03-24T10:06:38.659Z,15.27
2023-03-24T10:09:22.964Z,13.48
2023-03-24T10:12:12.367Z,13.23
2023-03-24T10:15:16.197Z,12.35
2023-03-24T10:17:57.925Z,14.43
2023-03-24T10:20:36.133Z,14.63
2023-03-24T10:23:22.995Z,13.77
2023-03-24T10:25:57.556Z,13.55
2023-03-24T10:28:35.469Z,13.35
2023-03-24T10:31:12.979Z,13.82
2023-03-24T10:33:44.964Z,14.35
2023-03-24T10:36:18.179Z,12.70
2023-03-24T10:38:47.456Z,16.58
2023-03-24T10:41:19.756Z,12.48
2023-03-24T10:43:51.850Z,12.68
2023-03-24T10:46:26.095Z,12.77
2023-03-24T10:48:56.344Z,11.95
2023-03-24T10:51:28.962Z,13.18
2023-03-24T10:54:13.957Z,11.30
2023-03-24T10:56:45.212Z,11.85
2023-03-24T10:59:28.884Z,14.65
2023-03-24T11:02:18.609Z,11.90
2023-03-24T11:04:55.599Z,11.98
2023-03-24T11:07:26.122Z,11.68
2023-03-24T11:10:08.332Z,11.38
2023-03-24T11:12:39.785Z,11.27
2023-03-24T11:15:23.021Z,11.13
2023-03-24T11:17:58.661Z,11.60
2023-03-24T11:20:32.593Z,13.82
2023-03-24T11:23:05.363Z,11.00
2023-03-24T11:25:36.962Z,11.18
2023-03-24T11:28:10.385Z,11.38
2023-03-24T11:30:48.470Z,11.10
2023-03-24T11:33:35.856Z,12.98
2023-03-24T11:36:30.612Z,11.23
2023-03-24T11:39:10.984Z,11.18
2023-03-24T11:41:42.193Z,11.77
2023-03-24T11:44:20.022Z,10.93
2023-03-24T11:46:53.829Z,11.98
2023-03-24T11:49:28.616Z,12.75
2023-03-24T11:51:57.545Z,11.02
2023-03-24T11:54:33.142Z,12.38
2023-03-24T11:57:08.532Z,11.13
2023-03-24T11:59:43.431Z,11.35
2023-03-24T12:02:25.552Z,10.95
2023-03-24T12:05:28.295Z,11.60
2023-03-24T12:08:14.900Z,10.93
2023-03-24T12:10:56.486Z,10.18
2023-03-24T12:13:36.607Z,12.43
2023-03-24T12:16:40.241Z,11.85
2023-03-24T12:19:42.279Z,11.35
2023-03-24T12:22:29.207Z,11.80
2023-03-24T12:25:22.776Z,11.95
2023-03-24T12:28:03.305Z,11.38
2023-03-24T12:30:38.276Z,11.18
2023-03-24T12:33:28.310Z,11.00
2023-03-24T12:36:21.906Z,9.43
2023-03-24T12:39:06.058Z,11.02
2023-03-24T12:41:50.069Z,11.13
2023-03-24T12:44:59.665Z,10.13
2023-03-24T12:48:03.824Z,9.63
2023-03-24T12:50:54.565Z,10.98
2023-03-24T12:53:42.770Z,11.23
2023-03-24T12:56:19.450Z,10.75
2023-03-24T12:58:53.454Z,11.02
2023-03-24T13:01:29.525Z,10.40
2023-03-24T13:04:08.037Z,10.95
2023-03-24T13:06:46.069Z,11.02
2023-03-24T13:09:29.697Z,10.13
2023-03-24T13:12:05.884Z,10.95
2023-03-24T13:14:47.758Z,10.95
2023-03-24T13:17:22.578Z,12.13
2023-03-24T13:19:53.083Z,10.23
2023-03-24T13:22:24.336Z,10.10
2023-03-24T13:24:55.394Z,11.23
2023-03-24T13:27:29.587Z,10.65
2023-03-24T13:30:21.972Z,10.52
2023-03-24T13:32:54.933Z,9.50
2023-03-24T13:35:42.348Z,10.73
2023-03-24T13:38:19.640Z,9.80
2023-03-24T13:40:53.256Z,8.63
2023-03-24T13:43:26.140Z,11.10
2023-03-24T13:46:03.224Z,10.90
2023-03-24T13:48:37.755Z,11.02
2023-03-24T13:51:17.399Z,11.35
2023-03-24T13:53:54.308Z,10.27
2023-03-24T13:56:28.944Z,10.25
2023-03-24T13:59:31.680Z,11.82
2023-03-24T14:02:49.741Z,12.32
2023-03-24T14:05:59.404Z,11.57
2023-03-24T14:08:45.338Z,9.13
2023-03-24T14:12:18.716Z,10.18
2023-03-24T14:15:21.356Z,9.48
2023-03-24T14:17:54.825Z,9.57
2023-03-24T14:20:36.114Z,10.18
2023-03-24T14:23:05.434Z,10.23
2023-03-24T14:25:36.897Z,11.38
2023-03-24T14:28:23.144Z,10.35
2023-03-24T14:31:10.055Z,7.00
2023-03-24T14:33:40.948Z,7.65
2023-03-24T14:36:12.228Z,6.22
2023-03-24T14:38:44.279Z,5.97
2023-03-24T14:41:17.276Z,6.03
2023-03-24T14:44:00.651Z,11.15
2023-03-24T14:46:50.400Z,6.32
2023-03-24T14:49:28.007Z,5.43
2023-03-24T14:52:09.948Z,6.28
2023-03-24T14:54:44.117Z,5.85
2023-03-24T14:57:20.212Z,5.78
2023-03-24T14:59:53.837Z,5.60
2023-03-24T15:02:37.111Z,5.55
2023-03-24T15:05:26.177Z,5.65
2023-03-24T15:08:13.840Z,4.75
2023-03-24T15:10:48.319Z,5.60
2023-03-24T15:13:34.154Z,4.55
2023-03-24T15:16:06.726Z,5.25
2023-03-24T15:18:44.192Z,4.38
2023-03-24T15:21:27.151Z,3.72
2023-03-24T15:23:57.216Z,4.05
2023-03-24T15:26:28.432Z,4.53
2023-03-24T15:28:59.231Z,3.75
2023-03-24T15:31:31.325Z,3.17
2023-03-24T15:34:25.409Z,2.42
2023-03-24T15:36:56.586Z,2.72
2023-03-24T15:39:29.277Z,1.55
2023-03-24T15:41:57.830Z,2.15
2023-03-24T15:44:30.999Z,1.67
2023-03-24T15:47:01.545Z,1.55
2023-03-24T15:49:35.652Z,1.60
2023-03-24T15:52:25.003Z,1.90
2023-03-24T15:54:56.100Z,1.58
2023-03-24T15:57:26.169Z,1.70
2023-03-24T16:00:11.905Z,1.50
2023-03-24T16:02:46.727Z,1.95
2023-03-24T16:05:25.381Z,1.83
2023-03-24T16:07:59.412Z,1.38
2023-03-24T16:10:34.100Z,1.60
2023-03-24T16:13:16.665Z,1.70
2023-03-24T16:15:48.233Z,1.73
2023-03-24T16:18:26.088Z,1.42
2023-03-24T16:20:56.194Z,1.40
2023-03-24T16:23:26.300Z,1.50
2023-03-24T16:25:55.381Z,1.88
2023-03-24T16:28:25.238Z,2.85
2023-03-24T16:31:01.313Z,5.47
2023-03-24T16:33:30.810Z,2.40
2023-03-24T16:36:01.115Z,2.08
2023-03-24T16:38:29.808Z,1.73
2023-03-24T16:40:58.978Z,2.70
2023-03-24T16:43:29.781Z,2.97
2023-03-24T16:45:58.415Z,3.08
2023-03-24T16:48:28.172Z,2.45
2023-03-24T16:50:58.218Z,2.55
2023-03-24T16:53:28.466Z,1.50
2023-03-24T16:55:56.993Z,1.70
2023-03-24T16:58:25.887Z,1.55
2023-03-24T17:00:56.468Z,1.63
2023-03-24T17:03:25.195Z,2.95
2023-03-24T17:05:54.058Z,3.25
2023-03-24T17:08:22.665Z,2.63
2023-03-24T17:10:55.138Z,4.88
2023-03-24T17:13:26.755Z,3.38
2023-03-24T17:15:56.149Z,2.50
2023-03-24T17:18:26.752Z,2.83
2023-03-24T17:20:55.748Z,2.75
2023-03-24T17:23:25.877Z,6.15
2023-03-24T17:25:58.250Z,3.75
2023-03-24T17:28:27.217Z,4.78
2023-03-24T17:30:57.131Z,3.17
2023-03-24T17:33:25.887Z,3.42
2023-03-24T17:35:56.483Z,3.28
2023-03-24T17:38:26.242Z,3.30
2023-03-24T17:41:05.772Z,3.00
2023-03-24T17:43:35.605Z,3.10
2023-03-24T17:46:07.925Z,3.00
2023-03-24T17:48:37.516Z,2.67
2023-03-24T17:51:08.992Z,4.38
2023-03-24T17:53:38.090Z,4.47
2023-03-24T17:56:12.663Z,4.78
2023-03-24T17:58:47.566Z,4.25
2023-03-24T18:01:18.738Z,5.20
2023-03-24T18:03:50.160Z,3.67
2023-03-24T18:06:20.355Z,3.92
2023-03-24T18:08:52.232Z,3.42
2023-03-24T18:11:22.974Z,2.85
2023-03-24T18:13:55.116Z,2.88
2023-03-24T18:16:27.285Z,3.90
2023-03-24T18:19:01.091Z,3.55
2023-03-24T18:21:31.972Z,3.20
2023-03-24T18:24:02.248Z,4.00
2023-03-24T18:26:34.354Z,5.13
2023-03-24T18:29:06.169Z,3.38
2023-03-24T18:31:36.417Z,3.40
2023-03-24T18:34:06.801Z,4.50
2023-03-24T18:36:36.540Z,4.72
2023-03-24T18:39:08.700Z,4.88
2023-03-24T18:41:41.509Z,4.38
2023-03-24T18:44:16.092Z,4.72
2023-03-24T18:46:46.428Z,5.32
2023-03-24T18:49:17.048Z,4.63
2023-03-24T18:51:47.030Z,4.60
2023-03-24T18:54:17.079Z,3.47
2023-03-24T18:56:49.208Z,3.65
2023-03-24T18:59:18.523Z,4.00
2023-03-24T19:01:51.485Z,4.95
2023-03-24T19:04:22.247Z,4.15
2023-03-24T19:06:52.803Z,3.50
2023-03-24T19:09:23.583Z,3.38
2023-03-24T19:11:55.985Z,4.57
2023-03-24T19:14:27.160Z,4.82
2023-03-24T19:17:02.842Z,4.43
2023-03-24T19:19:33.134Z,3.85
2023-03-24T19:22:04.211Z,7.75
2023-03-24T19:24:35.390Z,5.13
2023-03-24T19:27:09.199Z,4.13
2023-03-24T19:29:42.568Z,3.60
2023-03-24T19:32:14.754Z,3.78
2023-03-24T19:34:49.213Z,4.10
2023-03-24T19:37:22.125Z,2.72
2023-03-24T19:39:52.983Z,4.13
2023-03-24T19:42:34.115Z,3.53
2023-03-24T19:45:03.850Z,4.88
2023-03-24T19:47:34.709Z,4.75
2023-03-24T19:50:07.277Z,7.00
2023-03-24T19:52:43.189Z,4.40
2023-03-24T19:55:15.343Z,5.32
2023-03-24T19:57:47.893Z,4.45
2023-03-24T20:00:20.400Z,6.57
2023-03-24T20:02:50.295Z,5.25
2023-03-24T20:05:23.878Z,5.88
2023-03-24T20:07:56.067Z,5.25
2023-03-24T20:10:27.390Z,5.47
2023-03-24T20:13:00.513Z,6.20
2023-03-24T20:15:30.916Z,7.40
2023-03-24T20:18:01.271Z,6.43
2023-03-24T20:20:32.295Z,5.43
2023-03-24T20:23:05.284Z,5.78
2023-03-24T20:25:36.148Z,6.65
2023-03-24T20:28:09.889Z,6.35
2023-03-24T20:30:45.928Z,6.15
2023-03-24T20:33:19.291Z,6.90
2023-03-24T20:35:50.377Z,6.88
2023-03-24T20:38:22.506Z,5.95
2023-03-24T20:41:02.873Z,8.70
2023-03-24T20:43:37.009Z,7.03
2023-03-24T20:46:14.646Z,8.38
2023-03-24T20:48:44.590Z,13.05
2023-03-24T20:51:18.868Z,5.60
2023-03-24T20:53:49.942Z,3.50
2023-03-24T20:56:21.649Z,2.75
2023-03-24T20:58:53.731Z,2.70
2023-03-24T21:01:25.223Z,3.38
2023-03-24T21:04:00.143Z,2.90
2023-03-24T21:06:39.880Z,3.08
2023-03-24T21:09:10.402Z,3.30
2023-03-24T21:11:42.074Z,3.10
2023-03-24T21:14:14.953Z,3.17
2023-03-24T21:16:44.822Z,2.95
2023-03-24T21:19:14.811Z,3.15
2023-03-24T21:21:44.953Z,2.83
2023-03-24T21:24:17.484Z,2.53
2023-03-24T21:26:49.878Z,2.88
2023-03-24T21:29:22.993Z,2.20
2023-03-24T21:31:53.077Z,2.85
2023-03-24T21:34:22.371Z,2.15
2023-03-24T21:36:56.107Z,2.47
2023-03-24T21:39:25.167Z,1.75
2023-03-24T21:41:55.201Z,1.90
2023-03-24T21:44:25.583Z,2.88
2023-03-24T21:46:54.489Z,2.08
2023-03-24T21:49:23.141Z,1.75
2023-03-24T21:51:55.092Z,1.45
2023-03-24T21:54:23.658Z,1.30
2023-03-24T21:56:52.165Z,1.20
2023-03-24T21:59:20.672Z,2.15
2023-03-24T22:01:52.316Z,1.75
2023-03-24T22:04:20.825Z,1.15
2023-03-24T22:06:49.268Z,1.40
2023-03-24T22:09:19.173Z,0.85
2023-03-24T22:11:47.675Z,1.17
2023-03-24T22:14:16.376Z,1.45
2023-03-24T22:16:44.806Z,1.13
2023-03-24T22:19:14.670Z,0.85
2023-03-24T22:21:43.096Z,0.75
2023-03-24T22:24:11.564Z,0.77
2023-03-24T22:26:39.982Z,0.80
2023-03-24T22:29:08.419Z,0.98
2023-03-24T22:31:42.093Z,0.77
2023-03-24T22:34:10.686Z,0.57
2023-03-24T22:36:40.495Z,0.73
2023-03-24T22:39:09.922Z,0.85
2023-03-24T22:41:38.388Z,0.70
2023-03-24T22:44:07.518Z,1.23
2023-03-24T22:46:36.027Z,0.90
2023-03-24T22:49:04.607Z,1.13
2023-03-24T22:51:33.502Z,0.75
2023-03-24T22:54:04.230Z,0.90
2023-03-24T22:56:32.711Z,0.90
2023-03-24T22:59:01.150Z,0.90
2023-03-24T23:01:29.679Z,0.80
2023-03-24T23:03:58.102Z,0.65
2023-03-24T23:06:28.101Z,0.68
2023-03-24T23:08:57.084Z,0.70
2023-03-24T23:11:27.106Z,0.95
2023-03-24T23:14:02.379Z,1.02
2023-03-24T23:16:30.883Z,0.65
2023-03-24T23:18:59.324Z,0.65
2023-03-24T23:21:28.527Z,0.90
2023-03-24T23:23:57.125Z,0.85
2023-03-24T23:26:27.119Z,0.80
2023-03-24T23:28:55.650Z,1.15
2023-03-24T23:31:28.565Z,0.82
2023-03-24T23:33:58.963Z,0.85
2023-03-24T23:36:28.489Z,0.80
2023-03-24T23:38:57.143Z,0.75
2023-03-24T23:41:27.058Z,0.68
2023-03-24T23:43:55.889Z,0.40
2023-03-24T23:46:25.901Z,0.63
2023-03-24T23:48:54.590Z,0.88
2023-03-24T23:51:23.039Z,0.70
2023-03-24T23:53:51.537Z,0.63
2023-03-24T23:56:21.493Z,0.60
2023-03-24T23:58:51.434Z,0.70
